Time;durP1;ratioP1;P1;durP2;ratioP2;P2;SDS_P1;SDS_P2;PMS_P1;PMS_P2;Temp;Humidity;BMP_temperature;BMP_pressure;BME280_temperature;BME280_humidity;BME280_pressure;Samples;Min_cycle;Max_cycle;Signal;HPM_P1;HPM_P2
2023/12/21 00:01:39;;;;;;;4.35;1.23;;;3.80;99.90;;;;;;4905329;29;20067;-67
2023/12/21 00:04:11;;;;;;;3.35;0.82;;;3.70;99.90;;;;;;4914880;29;20072;-68
2023/12/21 00:06:38;;;;;;;1.65;0.93;;;3.80;99.90;;;;;;4898022;29;20055;-67
2023/12/21 00:09:10;;;;;;;1.95;1.05;;;3.80;99.90;;;;;;4915725;29;20051;-67
2023/12/21 00:11:42;;;;;;;1.88;1.00;;;3.80;99.90;;;;;;4915723;29;20067;-67
2023/12/21 00:14:14;;;;;;;1.55;1.00;;;3.80;99.90;;;;;;4914341;29;20052;-68
2023/12/21 00:16:46;;;;;;;2.88;1.33;;;3.90;99.90;;;;;;4914252;29;20127;-68
2023/12/21 00:19:18;;;;;;;2.92;1.35;;;3.80;99.90;;;;;;4907384;29;20517;-68
2023/12/21 00:21:45;;;;;;;3.55;1.50;;;3.90;99.90;;;;;;4913593;29;20044;-69
2023/12/21 00:24:16;;;;;;;2.13;1.00;;;3.90;99.90;;;;;;4898400;29;20513;-68
2023/12/21 00:26:48;;;;;;;1.65;0.95;;;3.90;99.90;;;;;;4917747;29;20052;-68
2023/12/21 00:29:20;;;;;;;3.13;1.65;;;3.80;99.90;;;;;;4913475;29;20057;-69
2023/12/21 00:31:52;;;;;;;1.77;0.95;;;3.90;99.90;;;;;;4913824;29;20463;-69
2023/12/21 00:34:24;;;;;;;2.58;1.30;;;3.90;99.90;;;;;;4913436;29;20080;-68
2023/12/21 00:36:56;;;;;;;1.50;1.05;;;3.80;99.90;;;;;;4910269;29;20122;-68
2023/12/21 00:39:23;;;;;;;3.00;1.10;;;3.80;99.90;;;;;;4913225;29;20054;-69
2023/12/21 00:41:54;;;;;;;3.83;1.20;;;3.80;99.90;;;;;;4912693;29;20059;-68
2023/12/21 00:44:26;;;;;;;2.67;1.42;;;3.80;99.90;;;;;;4911960;29;20075;-69
2023/12/21 00:46:58;;;;;;;1.63;0.95;;;3.80;99.90;;;;;;4914940;29;20577;-69
2023/12/21 00:49:30;;;;;;;1.85;1.10;;;3.80;99.90;;;;;;4913596;29;20054;-68
2023/12/21 00:52:03;;;;;;;1.45;1.10;;;3.80;99.90;;;;;;4915793;29;20044;-68
2023/12/21 00:54:35;;;;;;;1.38;1.00;;;3.80;99.90;;;;;;4914675;29;20058;-68
2023/12/21 00:57:02;;;;;;;1.73;1.08;;;3.80;99.90;;;;;;4899104;29;20043;-68
2023/12/21 00:59:34;;;;;;;3.83;1.20;;;3.80;99.90;;;;;;4915851;29;20039;-68
2023/12/21 01:02:06;;;;;;;2.40;1.08;;;3.80;99.90;;;;;;4915382;29;20407;-68
2023/12/21 01:04:38;;;;;;;2.55;1.30;;;3.70;99.90;;;;;;4914122;29;20040;-68
2023/12/21 01:07:10;;;;;;;2.03;1.13;;;3.70;99.90;;;;;;4914577;29;20130;-68
2023/12/21 01:09:38;;;;;;;2.63;1.15;;;3.70;99.90;;;;;;4907458;29;20055;-68
2023/12/21 01:12:10;;;;;;;2.78;1.30;;;3.80;99.90;;;;;;4912500;29;20055;-68
2023/12/21 01:14:42;;;;;;;2.60;1.10;;;3.80;99.90;;;;;;4898232;29;20048;-68
2023/12/21 01:17:14;;;;;;;2.85;1.45;;;3.80;99.90;;;;;;4915674;29;20509;-68
2023/12/21 01:19:46;;;;;;;2.53;0.90;;;3.70;99.90;;;;;;4913666;29;20051;-68
2023/12/21 01:22:19;;;;;;;2.80;1.30;;;3.70;99.90;;;;;;4911082;29;20051;-68
2023/12/21 01:24:51;;;;;;;3.00;1.75;;;3.70;99.90;;;;;;4913183;29;20429;-68
2023/12/21 01:27:20;;;;;;;6.90;2.22;;;3.70;99.90;;;;;;4915779;29;20150;-68
2023/12/21 01:29:52;;;;;;;2.65;1.27;;;3.70;99.90;;;;;;4915294;29;20813;-68
2023/12/21 01:32:24;;;;;;;3.05;1.15;;;3.70;99.90;;;;;;4914264;29;20044;-68
2023/12/21 01:34:56;;;;;;;3.58;1.63;;;3.70;99.90;;;;;;4914094;29;20052;-68
2023/12/21 01:37:28;;;;;;;2.42;1.60;;;3.60;99.90;;;;;;4911935;29;20111;-68
2023/12/21 01:40:00;;;;;;;3.03;1.70;;;3.60;99.90;;;;;;4914000;29;20051;-69
2023/12/21 01:42:32;;;;;;;2.22;1.20;;;3.60;99.90;;;;;;4905084;29;20139;-68
2023/12/21 01:45:04;;;;;;;3.05;1.40;;;3.60;99.90;;;;;;4914911;29;20036;-68
2023/12/21 01:47:36;;;;;;;2.03;1.38;;;3.50;99.90;;;;;;4911588;29;20051;-68
2023/12/21 01:50:10;;;;;;;3.97;1.45;;;3.50;99.90;;;;;;4927248;29;20056;-69
2023/12/21 01:52:43;;;;;;;2.10;1.20;;;3.50;99.90;;;;;;4915107;29;20050;-68
2023/12/21 01:55:16;;;;;;;1.95;1.65;;;3.50;99.90;;;;;;4914868;29;20044;-68
2023/12/21 01:57:48;;;;;;;2.70;1.50;;;3.50;99.90;;;;;;4914940;29;20134;-68
2023/12/21 02:00:16;;;;;;;2.15;1.58;;;3.50;99.90;;;;;;4913169;29;20127;-68
2023/12/21 02:02:50;;;;;;;1.83;1.05;;;3.50;99.90;;;;;;4905036;29;20074;-68
2023/12/21 02:05:21;;;;;;;2.55;1.00;;;3.50;99.90;;;;;;4912342;29;20409;-68
2023/12/21 02:07:53;;;;;;;3.97;1.38;;;3.50;99.90;;;;;;4912042;29;20060;-68
2023/12/21 02:10:20;;;;;;;2.85;1.42;;;3.50;99.90;;;;;;4917463;29;20498;-68
2023/12/21 02:12:52;;;;;;;4.65;1.58;;;3.50;99.90;;;;;;4912478;29;20043;-68
2023/12/21 02:15:24;;;;;;;2.45;1.60;;;3.60;99.90;;;;;;4908994;29;20612;-68
2023/12/21 02:17:58;;;;;;;4.35;1.45;;;3.60;99.90;;;;;;4914323;29;20095;-68
2023/12/21 02:20:31;;;;;;;2.35;1.45;;;3.50;99.90;;;;;;4913270;29;20052;-68
2023/12/21 02:23:04;;;;;;;3.65;1.30;;;3.50;99.90;;;;;;4897055;29;20059;-69
2023/12/21 02:25:36;;;;;;;7.35;1.55;;;3.50;99.90;;;;;;4912504;29;20487;-68
2023/12/21 02:28:08;;;;;;;2.13;1.35;;;3.40;99.90;;;;;;4912434;29;20521;-68
2023/12/21 02:30:35;;;;;;;1.63;1.30;;;3.40;99.90;;;;;;4904704;29;20827;-68
2023/12/21 02:33:07;;;;;;;2.22;1.90;;;3.30;99.90;;;;;;4897687;29;20049;-68
2023/12/21 02:35:39;;;;;;;2.67;1.30;;;3.30;99.90;;;;;;4912357;29;20067;-68
2023/12/21 02:38:11;;;;;;;3.60;2.33;;;3.20;99.90;;;;;;4901459;29;20124;-68
2023/12/21 02:40:42;;;;;;;3.50;2.05;;;3.20;99.90;;;;;;4914194;29;20056;-68
2023/12/21 02:43:14;;;;;;;2.13;1.63;;;3.10;99.90;;;;;;4913968;29;20075;-68
2023/12/21 02:45:46;;;;;;;2.17;1.60;;;3.10;99.90;;;;;;4913676;29;20047;-68
2023/12/21 02:48:18;;;;;;;6.10;1.77;;;3.10;99.90;;;;;;4893438;29;20158;-68
2023/12/21 02:50:46;;;;;;;2.25;1.50;;;3.10;99.90;;;;;;4913914;29;20048;-68
2023/12/21 02:53:17;;;;;;;2.97;1.50;;;3.10;99.90;;;;;;4909780;29;20459;-67
2023/12/21 02:55:49;;;;;;;3.35;1.50;;;3.10;99.90;;;;;;4911724;29;20425;-68
2023/12/21 02:58:23;;;;;;;2.30;1.90;;;3.20;99.90;;;;;;4912572;29;20143;-68
2023/12/21 03:00:55;;;;;;;;;;;3.10;99.90;;;;;;4911370;29;20052;-68
2023/12/21 03:03:22;;;;;;;4.60;2.13;;;3.10;99.90;;;;;;4910865;29;19929;-68
2023/12/21 03:05:48;;;;;;;3.10;1.40;;;3.20;99.90;;;;;;4896397;29;20135;-68
2023/12/21 03:08:22;;;;;;;2.15;1.90;;;3.20;99.90;;;;;;4899723;29;20052;-69
2023/12/21 03:10:54;;;;;;;3.60;1.65;;;3.20;99.90;;;;;;4897584;29;20430;-68
2023/12/21 03:13:26;;;;;;;3.15;1.60;;;3.20;99.90;;;;;;4913771;29;20080;-68
2023/12/21 03:15:58;;;;;;;2.03;1.33;;;3.30;99.90;;;;;;4913461;29;20055;-68
2023/12/21 03:18:25;;;;;;;1.95;1.40;;;3.30;99.90;;;;;;4912820;29;20130;-68
2023/12/21 03:20:57;;;;;;;2.50;1.25;;;3.30;99.90;;;;;;4909823;29;20047;-68
2023/12/21 03:23:30;;;;;;;4.78;2.05;;;3.30;99.90;;;;;;4913700;29;20052;-68
2023/12/21 03:25:57;;;;;;;1.73;1.30;;;3.30;99.90;;;;;;4916412;29;20050;-68
2023/12/21 03:28:29;;;;;;;1.83;1.40;;;3.40;99.90;;;;;;4916990;29;20062;-68
2023/12/21 03:31:01;;;;;;;2.60;1.60;;;3.40;99.90;;;;;;4905244;29;20127;-68
2023/12/21 03:33:33;;;;;;;2.50;1.95;;;3.40;99.90;;;;;;4910139;29;20481;-68
2023/12/21 03:36:05;;;;;;;2.90;1.25;;;3.50;99.90;;;;;;4916827;29;20047;-68
2023/12/21 03:38:37;;;;;;;1.65;1.20;;;3.40;99.90;;;;;;4912413;29;20053;-68
2023/12/21 03:41:09;;;;;;;2.05;1.17;;;3.50;99.90;;;;;;4914193;29;20044;-68
2023/12/21 03:43:41;;;;;;;1.92;1.15;;;3.50;99.90;;;;;;4907453;29;20055;-68
2023/12/21 03:46:09;;;;;;;1.70;1.40;;;3.50;99.90;;;;;;4910136;29;20127;-68
2023/12/21 03:48:36;;;;;;;2.08;1.05;;;3.50;99.90;;;;;;4916649;29;20040;-68
2023/12/21 03:51:08;;;;;;;2.78;1.50;;;3.50;99.90;;;;;;4908396;29;20136;-68
2023/12/21 03:53:40;;;;;;;2.83;1.48;;;3.60;99.90;;;;;;4916809;29;20044;-68
2023/12/21 03:56:12;;;;;;;1.63;1.13;;;3.60;99.90;;;;;;4914353;29;20044;-68
2023/12/21 03:58:45;;;;;;;1.42;1.00;;;3.70;99.90;;;;;;4915633;29;20044;-68
2023/12/21 04:01:26;;;;;;;1.88;1.50;;;3.70;99.90;;;;;;4915265;29;20104;-68
2023/12/21 04:03:58;;;;;;;2.50;1.30;;;3.60;99.90;;;;;;4916519;29;20048;-68
2023/12/21 04:06:30;;;;;;;1.90;1.35;;;3.60;99.90;;;;;;4916202;29;20054;-68
2023/12/21 04:09:02;;;;;;;3.35;1.48;;;3.70;99.90;;;;;;4915597;29;20052;-68
2023/12/21 04:11:34;;;;;;;1.42;0.93;;;3.70;99.90;;;;;;4914346;29;20438;-68
2023/12/21 04:14:06;;;;;;;5.80;1.13;;;3.80;99.90;;;;;;4916387;29;20619;-68
2023/12/21 04:16:40;;;;;;;2.45;1.10;;;3.80;99.90;;;;;;4907234;29;20074;-68
2023/12/21 04:19:12;;;;;;;2.03;1.00;;;3.80;99.90;;;;;;4912928;29;20552;-68
2023/12/21 04:21:43;;;;;;;1.25;0.90;;;3.80;99.90;;;;;;4914648;29;20059;-68
2023/12/21 04:24:16;;;;;;;2.30;1.35;;;3.90;99.90;;;;;;4907527;29;20108;-68
2023/12/21 04:26:48;;;;;;;1.65;0.85;;;3.90;99.90;;;;;;4910912;29;20053;-68
2023/12/21 04:29:14;;;;;;;1.10;0.90;;;3.90;99.90;;;;;;4916643;29;20044;-68
2023/12/21 04:31:46;;;;;;;2.00;1.30;;;3.90;99.90;;;;;;4916114;29;20047;-68
2023/12/21 04:34:18;;;;;;;1.70;1.10;;;4.00;99.90;;;;;;4912800;29;20088;-68
2023/12/21 04:36:50;;;;;;;3.22;1.10;;;3.90;99.90;;;;;;4915660;29;20500;-69
2023/12/21 04:39:17;;;;;;;1.63;1.25;;;3.90;99.90;;;;;;4915451;29;20040;-68
2023/12/21 04:41:49;;;;;;;3.45;0.98;;;4.00;99.90;;;;;;4908359;29;20525;-68
2023/12/21 04:44:21;;;;;;;2.17;1.25;;;4.00;99.90;;;;;;4914068;29;20509;-68
2023/12/21 04:46:53;;;;;;;1.75;1.17;;;4.00;99.90;;;;;;4915104;29;20535;-69
2023/12/21 04:49:26;;;;;;;2.15;1.00;;;4.00;99.90;;;;;;4895636;29;20052;-68
2023/12/21 04:51:53;;;;;;;2.20;0.98;;;4.00;99.90;;;;;;4914439;29;20479;-68
2023/12/21 04:54:25;;;;;;;1.35;0.80;;;4.00;99.90;;;;;;4915802;29;20055;-68
2023/12/21 04:56:57;;;;;;;1.48;0.90;;;4.00;99.90;;;;;;4916112;29;20048;-68
2023/12/21 04:59:29;;;;;;;1.58;0.85;;;4.10;99.90;;;;;;4910175;29;20052;-68
2023/12/21 05:01:56;;;;;;;1.42;0.90;;;4.00;99.90;;;;;;4914713;29;20048;-68
2023/12/21 05:04:28;;;;;;;0.82;0.70;;;4.00;99.90;;;;;;4913015;29;20099;-68
2023/12/21 05:07:01;;;;;;;2.35;0.90;;;4.00;99.90;;;;;;4914510;29;20044;-69
2023/12/21 05:09:33;;;;;;;2.53;0.85;;;4.10;99.90;;;;;;4911965;29;20140;-68
2023/12/21 05:12:05;;;;;;;2.65;1.05;;;4.10;99.90;;;;;;4911165;29;20066;-68
2023/12/21 05:14:37;;;;;;;2.90;1.00;;;4.10;99.90;;;;;;4908633;29;20579;-68
2023/12/21 05:17:09;;;;;;;2.25;0.80;;;4.20;99.90;;;;;;4915480;29;20044;-68
2023/12/21 05:19:42;;;;;;;1.35;0.80;;;4.20;99.90;;;;;;4915690;29;20036;-68
2023/12/21 05:22:14;;;;;;;1.45;1.02;;;4.20;99.90;;;;;;4914569;29;20127;-68
2023/12/21 05:24:46;;;;;;;2.10;0.90;;;4.20;99.90;;;;;;4914622;29;20044;-68
2023/12/21 05:27:13;;;;;;;1.58;1.02;;;4.30;99.90;;;;;;4910071;29;20554;-68
2023/12/21 05:29:45;;;;;;;0.70;0.60;;;4.30;99.90;;;;;;4914879;29;20522;-68
2023/12/21 05:32:17;;;;;;;1.10;0.80;;;4.30;99.90;;;;;;4913476;29;20032;-68
2023/12/21 05:34:49;;;;;;;1.27;0.80;;;4.30;99.90;;;;;;4907839;29;20405;-67
2023/12/21 05:37:15;;;;;;;2.78;1.00;;;4.30;99.90;;;;;;4908190;29;20127;-67
2023/12/21 05:39:49;;;;;;;1.48;0.90;;;4.30;99.90;;;;;;4887486;29;20040;-68
2023/12/21 05:42:16;;;;;;;1.30;0.90;;;4.40;99.90;;;;;;4905181;29;20048;-68
2023/12/21 05:44:48;;;;;;;0.95;0.85;;;4.40;99.90;;;;;;4909261;29;20067;-68
2023/12/21 05:47:15;;;;;;;2.17;1.00;;;4.40;99.90;;;;;;4909862;29;20127;-67
2023/12/21 05:49:46;;;;;;;1.98;1.23;;;4.40;99.90;;;;;;4911071;29;20305;-67
2023/12/21 05:52:18;;;;;;;1.40;1.17;;;4.40;99.90;;;;;;4913508;29;20170;-68
2023/12/21 05:54:45;;;;;;;1.58;1.20;;;4.50;99.90;;;;;;4913358;29;20056;-68
2023/12/21 05:57:17;;;;;;;4.00;1.55;;;4.50;99.90;;;;;;4910327;29;20044;-67
2023/12/21 05:59:44;;;;;;;1.70;1.40;;;4.50;99.90;;;;;;4906088;29;20080;-67
2023/12/21 06:02:15;;;;;;;2.20;1.45;;;4.60;99.90;;;;;;4899518;29;20059;-67
2023/12/21 06:04:47;;;;;;;2.47;1.20;;;4.60;99.90;;;;;;4907435;29;20059;-68
2023/12/21 06:07:19;;;;;;;2.20;1.15;;;4.50;99.90;;;;;;4908232;29;20044;-68
2023/12/21 06:09:52;;;;;;;1.45;1.10;;;4.60;99.90;;;;;;4910502;29;20131;-67
2023/12/21 06:12:24;;;;;;;1.02;0.80;;;4.60;99.90;;;;;;4925716;29;20703;-68
2023/12/21 06:14:51;;;;;;;1.58;1.05;;;4.70;99.90;;;;;;4912578;29;20129;-67
2023/12/21 06:17:23;;;;;;;1.98;1.05;;;4.70;99.90;;;;;;4911716;29;20046;-67
2023/12/21 06:19:55;;;;;;;1.88;1.48;;;4.70;99.90;;;;;;4909908;29;20047;-67
2023/12/21 06:22:27;;;;;;;0.95;0.70;;;4.80;99.90;;;;;;4912015;29;20572;-68
2023/12/21 06:25:00;;;;;;;1.33;0.80;;;4.70;99.90;;;;;;4911613;29;20131;-67
2023/12/21 06:27:33;;;;;;;1.17;0.80;;;4.80;99.90;;;;;;4909234;29;20060;-67
2023/12/21 06:30:05;;;;;;;1.10;0.75;;;4.90;99.90;;;;;;4910509;29;20063;-67
2023/12/21 06:32:32;;;;;;;0.98;0.73;;;4.90;99.90;;;;;;4910183;29;20052;-68
2023/12/21 06:35:04;;;;;;;2.83;0.80;;;4.90;99.90;;;;;;4912054;29;20055;-68
2023/12/21 06:37:31;;;;;;;1.75;1.10;;;4.90;99.90;;;;;;4911201;29;20044;-67
2023/12/21 06:39:58;;;;;;;1.00;0.63;;;5.00;99.90;;;;;;4911881;29;20037;-68
2023/12/21 06:42:31;;;;;;;2.03;0.65;;;5.00;99.90;;;;;;4911813;29;20066;-68
2023/12/21 06:45:03;;;;;;;1.05;0.65;;;5.00;99.90;;;;;;4911320;29;20534;-67
2023/12/21 06:47:30;;;;;;;1.55;0.70;;;5.00;99.90;;;;;;4911002;29;20802;-67
2023/12/21 06:49:56;;;;;;;0.95;0.75;;;5.00;99.90;;;;;;4909572;29;20046;-68
2023/12/21 06:52:23;;;;;;;1.38;0.60;;;5.00;99.90;;;;;;4911478;29;20123;-68
2023/12/21 06:54:56;;;;;;;2.35;0.90;;;5.00;99.90;;;;;;4909902;29;20143;-67
2023/12/21 06:57:29;;;;;;;1.13;0.60;;;5.00;99.90;;;;;;4909656;29;20048;-68
2023/12/21 07:00:01;;;;;;;1.05;0.77;;;5.10;99.90;;;;;;4910954;29;20367;-68
2023/12/21 07:02:33;;;;;;;1.10;0.50;;;5.10;99.90;;;;;;4914081;29;20048;-68
2023/12/21 07:05:05;;;;;;;2.15;0.60;;;5.20;99.90;;;;;;4901555;29;20130;-68
2023/12/21 07:07:37;;;;;;;1.45;0.80;;;5.20;99.90;;;;;;4898120;29;20397;-67
2023/12/21 07:10:05;;;;;;;1.00;0.70;;;5.20;99.90;;;;;;4914739;29;20042;-67
2023/12/21 07:12:36;;;;;;;0.80;0.43;;;5.20;99.90;;;;;;4913727;29;20044;-68
2023/12/21 07:15:10;;;;;;;0.70;0.50;;;5.20;99.90;;;;;;4927121;29;20056;-68
2023/12/21 07:17:42;;;;;;;1.77;0.93;;;5.30;99.90;;;;;;4906789;29;20506;-67
2023/12/21 07:20:15;;;;;;;1.67;0.80;;;5.30;99.90;;;;;;4912778;29;20052;-67
2023/12/21 07:22:42;;;;;;;4.47;3.47;;;5.30;99.90;;;;;;4912514;29;20046;-67
2023/12/21 07:25:09;;;;;;;2.03;1.42;;;5.30;99.90;;;;;;4920882;29;20192;-68
2023/12/21 07:27:41;;;;;;;2.05;1.10;;;5.30;99.90;;;;;;4915282;29;20860;-67
2023/12/21 07:30:13;;;;;;;1.65;0.80;;;5.40;99.90;;;;;;4913052;29;20052;-67
2023/12/21 07:32:45;;;;;;;0.57;0.50;;;5.40;99.90;;;;;;4928617;29;20192;-68
2023/12/21 07:35:17;;;;;;;1.25;0.63;;;5.40;99.90;;;;;;4915912;29;20044;-68
2023/12/21 07:37:49;;;;;;;1.70;0.80;;;5.40;99.90;;;;;;4915435;29;20143;-67
2023/12/21 07:40:16;;;;;;;0.82;0.40;;;5.40;99.90;;;;;;4902583;29;20084;-68
2023/12/21 07:42:43;;;;;;;0.82;0.55;;;5.50;99.90;;;;;;4911458;29;20047;-68
2023/12/21 07:45:14;;;;;;;1.20;0.80;;;5.50;99.90;;;;;;4913895;29;20150;-68
2023/12/21 07:47:46;;;;;;;0.70;0.70;;;5.50;99.90;;;;;;4915622;29;20048;-67
2023/12/21 07:50:14;;;;;;;1.40;0.82;;;5.50;99.90;;;;;;4924236;29;20044;-67
2023/12/21 07:52:46;;;;;;;1.08;0.77;;;5.50;99.90;;;;;;4914676;29;20044;-67
2023/12/21 07:55:18;;;;;;;0.73;0.60;;;5.50;99.90;;;;;;4914615;29;20421;-67
2023/12/21 07:57:50;;;;;;;1.20;0.50;;;5.60;99.90;;;;;;4914041;29;20052;-68
2023/12/21 08:00:22;;;;;;;0.90;0.70;;;5.60;99.90;;;;;;4912372;29;20032;-68
2023/12/21 08:02:54;;;;;;;0.85;0.50;;;5.70;99.90;;;;;;4911903;29;20044;-68
2023/12/21 08:05:26;;;;;;;0.57;0.50;;;5.70;99.90;;;;;;4914221;29;20041;-67
2023/12/21 08:07:58;;;;;;;1.05;0.60;;;5.70;99.90;;;;;;4914202;29;20127;-68
2023/12/21 08:10:25;;;;;;;1.33;0.47;;;5.70;99.90;;;;;;4913660;29;20044;-67
2023/12/21 08:12:58;;;;;;;1.30;0.50;;;5.70;99.90;;;;;;4914611;29;20036;-67
2023/12/21 08:15:30;;;;;;;1.10;0.60;;;5.80;99.90;;;;;;4907592;29;20044;-67
2023/12/21 08:18:02;;;;;;;0.63;0.50;;;5.80;99.90;;;;;;4911154;29;20524;-67
2023/12/21 08:20:36;;;;;;;1.33;0.70;;;5.80;99.90;;;;;;4915137;29;20040;-67
2023/12/21 08:23:08;;;;;;;;;;;5.80;99.90;;;;;;4913700;29;20051;-68
2023/12/21 08:25:40;;;;;;;0.90;0.50;;;5.90;99.90;;;;;;4911514;29;19922;-67
2023/12/21 08:28:12;;;;;;;2.13;0.65;;;5.90;99.90;;;;;;4914839;29;20040;-68
2023/12/21 08:30:44;;;;;;;1.85;0.60;;;5.90;99.90;;;;;;4909588;29;20131;-67
2023/12/21 08:33:15;;;;;;;0.85;0.85;;;6.00;99.90;;;;;;4922514;29;20056;-67
2023/12/21 08:35:47;;;;;;;0.57;0.50;;;6.00;99.90;;;;;;4922896;29;20135;-67
2023/12/21 08:38:20;;;;;;;0.98;0.60;;;6.00;99.90;;;;;;4910394;29;20044;-67
2023/12/21 08:40:52;;;;;;;1.30;0.60;;;6.00;99.90;;;;;;4912822;29;20075;-67
2023/12/21 08:43:19;;;;;;;0.95;0.80;;;6.10;99.90;;;;;;4911604;29;20043;-68
2023/12/21 08:45:51;;;;;;;0.70;0.50;;;6.10;99.90;;;;;;4912244;29;20143;-68
2023/12/21 08:48:23;;;;;;;0.85;0.50;;;6.20;99.90;;;;;;4913810;29;20055;-68
2023/12/21 08:50:55;;;;;;;2.05;0.50;;;6.20;99.90;;;;;;4912244;29;20048;-67
2023/12/21 08:53:27;;;;;;;0.90;0.50;;;6.30;99.90;;;;;;4913330;29;20063;-67
2023/12/21 08:55:59;;;;;;;1.15;0.50;;;6.30;99.90;;;;;;4910866;29;20040;-68
2023/12/21 08:58:32;;;;;;;1.90;0.80;;;6.40;99.90;;;;;;4910756;29;20782;-68
2023/12/21 09:01:04;;;;;;;0.70;0.43;;;6.40;99.90;;;;;;4912480;29;20043;-68
2023/12/21 09:03:30;;;;;;;0.90;0.50;;;6.40;99.90;;;;;;4911411;29;20079;-68
2023/12/21 09:06:02;;;;;;;0.75;0.40;;;6.50;99.90;;;;;;4912963;29;20139;-68
2023/12/21 09:08:34;;;;;;;0.95;0.45;;;6.50;99.90;;;;;;4911406;29;20785;-68
2023/12/21 09:11:01;;;;;;;1.58;0.57;;;6.50;99.90;;;;;;4912098;29;20047;-67
2023/12/21 09:13:33;;;;;;;1.08;0.45;;;6.60;99.90;;;;;;4911479;29;20139;-68
2023/12/21 09:16:05;;;;;;;0.73;0.47;;;6.60;99.90;;;;;;4897147;29;20693;-67
2023/12/21 09:18:37;;;;;;;0.52;0.40;;;6.60;99.90;;;;;;4912315;29;20079;-68
2023/12/21 09:21:10;;;;;;;4.32;0.80;;;6.60;99.90;;;;;;4924408;29;20046;-67
2023/12/21 09:23:42;;;;;;;0.93;0.52;;;6.60;99.90;;;;;;4911532;29;20042;-67
2023/12/21 09:26:14;;;;;;;0.60;0.40;;;6.60;99.90;;;;;;4911911;29;20051;-67
2023/12/21 09:28:46;;;;;;;0.50;0.50;;;6.60;99.90;;;;;;4908174;29;20893;-68
2023/12/21 09:31:18;;;;;;;1.98;0.55;;;6.60;99.90;;;;;;4911687;29;20051;-67
2023/12/21 09:33:50;;;;;;;0.55;0.35;;;6.60;99.90;;;;;;4908033;29;20044;-68
2023/12/21 09:36:22;;;;;;;1.63;0.60;;;6.60;99.90;;;;;;4911773;29;20429;-68
2023/12/21 09:38:54;;;;;;;0.93;0.40;;;6.60;99.90;;;;;;4909774;29;20044;-68
2023/12/21 09:41:26;;;;;;;0.98;0.50;;;6.60;99.90;;;;;;4911808;29;20044;-68
2023/12/21 09:43:54;;;;;;;1.65;0.57;;;6.60;99.90;;;;;;4911976;29;20048;-67
2023/12/21 09:46:28;;;;;;;7.38;1.85;;;6.70;99.90;;;;;;4923640;29;20068;-68
2023/12/21 09:48:55;;;;;;;1.40;0.40;;;6.70;99.90;;;;;;4910415;29;20091;-68
2023/12/21 09:51:24;;;;;;;0.65;0.38;;;6.70;99.90;;;;;;4912170;29;20618;-68
2023/12/21 09:53:53;;;;;;;0.85;0.40;;;6.70;99.90;;;;;;4910538;29;20520;-68
2023/12/21 09:56:27;;;;;;;0.80;0.40;;;6.70;99.90;;;;;;4908492;29;20059;-67
2023/12/21 09:58:56;;;;;;;1.33;0.50;;;6.70;99.90;;;;;;4907745;29;20040;-67
2023/12/21 10:01:28;;;;;;;1.05;0.40;;;6.70;99.90;;;;;;4909341;29;20052;-68
2023/12/21 10:04:00;;;;;;;2.55;0.90;;;6.60;99.90;;;;;;4896702;29;20071;-68
2023/12/21 10:06:32;;;;;;;1.05;0.50;;;6.70;99.90;;;;;;4894401;29;20048;-68
2023/12/21 10:09:04;;;;;;;0.52;0.30;;;6.70;99.90;;;;;;4908014;29;20087;-68
2023/12/21 10:11:36;;;;;;;0.50;0.40;;;6.80;99.90;;;;;;4912211;29;20092;-67
2023/12/21 10:14:19;;;;;;;0.47;0.30;;;6.80;99.90;;;;;;4892690;29;20048;-68
2023/12/21 10:16:51;;;;;;;0.40;0.30;;;6.80;99.90;;;;;;4909930;29;20458;-68
2023/12/21 10:19:22;;;;;;;0.98;0.40;;;6.80;99.90;;;;;;4911200;29;20840;-68
2023/12/21 10:21:50;;;;;;;0.65;0.65;;;6.80;99.90;;;;;;4910676;29;20492;-67
2023/12/21 10:24:22;;;;;;;0.95;0.50;;;6.90;99.90;;;;;;4909653;29;20048;-68
2023/12/21 10:26:54;;;;;;;1.23;0.40;;;6.90;99.90;;;;;;4923445;29;20043;-68
2023/12/21 10:29:26;;;;;;;0.57;0.40;;;6.90;99.90;;;;;;4913355;29;20572;-69
2023/12/21 10:31:52;;;;;;;1.33;0.50;;;6.90;99.90;;;;;;4909191;29;20037;-69
2023/12/21 10:34:19;;;;;;;0.55;0.40;;;6.90;99.90;;;;;;4909342;29;20032;-69
2023/12/21 10:36:51;;;;;;;0.65;0.40;;;6.90;99.90;;;;;;4912898;29;20044;-68
2023/12/21 10:39:22;;;;;;;0.73;0.43;;;7.00;99.90;;;;;;4912341;29;20478;-69
2023/12/21 10:41:56;;;;;;;1.08;0.85;;;7.00;99.90;;;;;;4925947;29;20056;-68
2023/12/21 10:44:29;;;;;;;2.50;1.10;;;7.00;99.90;;;;;;4914094;29;20048;-68
2023/12/21 10:46:56;;;;;;;1.17;0.45;;;7.00;99.90;;;;;;4897606;29;20565;-69
2023/12/21 10:49:28;;;;;;;0.63;0.30;;;7.00;99.90;;;;;;4914302;29;20044;-69
2023/12/21 10:52:01;;;;;;;1.67;0.30;;;7.00;99.90;;;;;;4914525;29;20413;-69
2023/12/21 10:54:33;;;;;;;1.17;0.30;;;7.10;99.90;;;;;;4911396;29;20055;-69
2023/12/21 10:57:07;;;;;;;0.35;0.20;;;7.10;99.90;;;;;;4916830;29;20634;-69
2023/12/21 10:59:39;;;;;;;;;;;7.10;99.90;;;;;;4912115;29;20394;-68
2023/12/21 11:02:13;;;;;;;0.73;0.50;;;7.20;99.90;;;;;;4914139;29;20014;-68
2023/12/21 11:04:46;;;;;;;1.23;0.20;;;7.10;99.90;;;;;;4913233;29;20044;-68
2023/12/21 11:07:19;;;;;;;0.90;0.38;;;7.10;99.90;;;;;;4915910;29;20050;-69
2023/12/21 11:09:51;;;;;;;0.30;0.30;;;7.10;99.90;;;;;;4911358;29;20600;-69
2023/12/21 11:12:23;;;;;;;0.63;0.20;;;7.20;99.90;;;;;;4926787;29;20417;-69
2023/12/21 11:14:56;;;;;;;0.45;0.30;;;7.10;99.90;;;;;;4912183;29;20044;-68
2023/12/21 11:17:25;;;;;;;0.75;0.20;;;7.20;99.90;;;;;;4907264;29;20039;-69
2023/12/21 11:19:57;;;;;;;0.30;0.20;;;7.20;99.90;;;;;;4911255;29;20048;-68
2023/12/21 11:22:30;;;;;;;0.57;0.30;;;7.20;99.90;;;;;;4911459;29;20497;-68
2023/12/21 11:25:04;;;;;;;1.42;0.20;;;7.20;99.90;;;;;;4924797;29;20053;-69
2023/12/21 11:27:36;;;;;;;0.80;0.68;;;7.20;99.90;;;;;;4912029;29;20042;-69
2023/12/21 11:30:12;;;;;;;0.25;0.20;;;7.20;99.90;;;;;;4908713;29;20048;-69
2023/12/21 11:32:46;;;;;;;1.50;0.45;;;7.20;99.90;;;;;;4914380;29;20046;-69
2023/12/21 11:35:21;;;;;;;1.15;0.40;;;7.20;99.90;;;;;;4918918;29;20044;-67
2023/12/21 11:37:54;;;;;;;1.50;0.30;;;7.20;99.90;;;;;;4913858;29;20067;-67
2023/12/21 11:40:28;;;;;;;0.68;0.40;;;7.20;99.90;;;;;;4914786;29;20509;-68
2023/12/21 11:43:01;;;;;;;0.52;0.40;;;7.20;99.90;;;;;;4908307;29;20450;-67
2023/12/21 11:45:34;;;;;;;0.57;0.30;;;7.20;99.90;;;;;;4910022;29;20079;-67
2023/12/21 11:48:11;;;;;;;0.70;0.30;;;7.30;99.90;;;;;;4912311;29;20059;-69
2023/12/21 11:50:43;;;;;;;0.68;0.30;;;7.30;99.90;;;;;;4925189;29;20067;-67
2023/12/21 11:53:15;;;;;;;0.65;0.30;;;7.30;99.90;;;;;;4910626;29;20512;-67
2023/12/21 11:55:47;;;;;;;0.20;0.20;;;7.30;99.90;;;;;;4914203;29;20121;-67
2023/12/21 11:58:21;;;;;;;0.85;0.35;;;7.30;99.90;;;;;;4913133;29;20044;-68
2023/12/21 12:00:51;;;;;;;0.40;0.20;;;7.40;99.90;;;;;;4913582;29;20201;-67
2023/12/21 12:03:26;;;;;;;0.93;0.32;;;7.40;99.90;;;;;;4911763;29;20417;-67
2023/12/21 12:05:59;;;;;;;0.80;0.60;;;7.30;99.90;;;;;;4908268;29;20045;-67
2023/12/21 12:08:33;;;;;;;1.17;0.40;;;7.30;99.90;;;;;;4909690;29;20043;-67
2023/12/21 12:11:06;;;;;;;0.50;0.40;;;7.30;99.90;;;;;;4909630;29;20044;-67
2023/12/21 12:13:37;;;;;;;0.40;0.32;;;7.30;99.90;;;;;;4916705;29;20096;-67
2023/12/21 12:16:10;;;;;;;0.38;0.20;;;7.40;99.90;;;;;;4910470;29;20040;-67
2023/12/21 12:18:42;;;;;;;0.40;0.30;;;7.40;99.90;;;;;;4913603;29;20048;-67
2023/12/21 12:21:14;;;;;;;0.57;0.28;;;7.40;99.90;;;;;;4913491;29;20052;-67
2023/12/21 12:23:49;;;;;;;0.60;0.32;;;7.30;99.90;;;;;;4910806;29;20041;-67
2023/12/21 12:26:22;;;;;;;0.50;0.30;;;7.30;99.90;;;;;;4912057;29;20423;-67
2023/12/21 12:28:54;;;;;;;0.38;0.35;;;7.30;99.90;;;;;;4914579;29;20055;-67
2023/12/21 12:31:26;;;;;;;4.78;0.40;;;7.30;99.90;;;;;;4914887;29;20092;-67
2023/12/21 12:33:58;;;;;;;0.20;0.20;;;7.40;99.90;;;;;;4913481;29;20071;-67
2023/12/21 12:36:30;;;;;;;0.47;0.30;;;7.40;99.90;;;;;;4917848;29;20048;-67
2023/12/21 12:39:02;;;;;;;2.08;0.40;;;7.40;99.90;;;;;;4911911;29;20051;-67
2023/12/21 12:41:30;;;;;;;1.30;0.40;;;7.40;99.90;;;;;;4907622;29;20048;-67
2023/12/21 12:43:58;;;;;;;0.73;0.40;;;7.40;99.90;;;;;;4910933;29;20568;-67
2023/12/21 12:46:30;;;;;;;0.57;0.30;;;7.40;99.90;;;;;;4909383;29;20074;-67
2023/12/21 12:49:02;;;;;;;0.47;0.38;;;7.40;99.90;;;;;;4913582;29;20579;-68
2023/12/21 12:51:34;;;;;;;0.77;0.40;;;7.40;99.90;;;;;;4910239;29;20063;-68
2023/12/21 12:54:07;;;;;;;1.05;0.45;;;7.30;99.90;;;;;;4911204;29;20051;-67
2023/12/21 12:56:46;;;;;;;0.60;0.30;;;7.40;99.90;;;;;;4908326;29;20048;-68
2023/12/21 12:59:19;;;;;;;0.95;0.50;;;7.40;99.90;;;;;;4910720;29;20112;-68
2023/12/21 13:01:51;;;;;;;0.57;0.20;;;7.40;99.90;;;;;;4892759;29;20062;-68
2023/12/21 13:04:18;;;;;;;1.73;0.47;;;7.30;99.90;;;;;;4904615;29;20726;-68
2023/12/21 13:06:51;;;;;;;0.95;0.35;;;7.30;99.90;;;;;;4905622;29;20450;-67
2023/12/21 13:09:23;;;;;;;1.90;0.38;;;7.20;99.90;;;;;;4907071;29;20044;-67
2023/12/21 13:11:55;;;;;;;0.40;0.30;;;7.30;99.90;;;;;;4909510;29;20055;-71
2023/12/21 13:14:27;;;;;;;1.23;0.20;;;7.20;99.90;;;;;;4904378;29;20638;-68
2023/12/21 13:16:59;;;;;;;0.40;0.30;;;7.20;99.90;;;;;;4916078;29;20997;-68
2023/12/21 13:19:32;;;;;;;1.77;0.90;;;7.10;99.90;;;;;;4908582;29;20040;-67